sensor_id;sensor_type;location;lat;lon;timestamp;P1;durP1;ratioP1;P2;durP2;ratioP2
30948;SDS011;17637;51.984;21.208;2024-03-06T00:02:12;189.40;;;68.30;;
30948;SDS011;17637;51.984;21.208;2024-03-06T00:04:44;191.55;;;70.63;;
30948;SDS011;17637;51.984;21.208;2024-03-06T00:07:16;186.10;;;68.75;;
30948;SDS011;17637;51.984;21.208;2024-03-06T00:09:48;191.23;;;70.63;;
30948;SDS011;17637;51.984;21.208;2024-03-06T00:12:20;269.83;;;82.65;;
30948;SDS011;17637;51.984;21.208;2024-03-06T00:14:52;208.40;;;72.63;;
30948;SDS011;17637;51.984;21.208;2024-03-06T00:17:24;222.75;;;77.40;;
30948;SDS011;17637;51.984;21.208;2024-03-06T00:19:56;296.17;;;84.55;;
30948;SDS011;17637;51.984;21.208;2024-03-06T00:22:28;197.57;;;72.95;;
30948;SDS011;17637;51.984;21.208;2024-03-06T00:25:00;212.73;;;74.47;;
30948;SDS011;17637;51.984;21.208;2024-03-06T00:27:32;208.38;;;72.90;;
30948;SDS011;17637;51.984;21.208;2024-03-06T00:30:04;254.98;;;81.85;;
30948;SDS011;17637;51.984;21.208;2024-03-06T00:32:36;184.70;;;71.20;;
30948;SDS011;17637;51.984;21.208;2024-03-06T00:35:08;194.90;;;74.18;;
30948;SDS011;17637;51.984;21.208;2024-03-06T00:37:40;205.30;;;77.85;;
30948;SDS011;17637;51.984;21.208;2024-03-06T00:40:12;197.48;;;75.72;;
30948;SDS011;17637;51.984;21.208;2024-03-06T00:42:44;124.63;;;61.50;;
30948;SDS011;17637;51.984;21.208;2024-03-06T00:45:17;181.05;;;74.35;;
30948;SDS011;17637;51.984;21.208;2024-03-06T00:47:48;200.50;;;78.22;;
30948;SDS011;17637;51.984;21.208;2024-03-06T00:50:20;230.60;;;82.15;;
30948;SDS011;17637;51.984;21.208;2024-03-06T00:52:53;279.92;;;88.78;;
30948;SDS011;17637;51.984;21.208;2024-03-06T00:55:25;212.40;;;77.57;;
30948;SDS011;17637;51.984;21.208;2024-03-06T00:57:57;234.57;;;82.97;;
30948;SDS011;17637;51.984;21.208;2024-03-06T01:00:29;173.98;;;76.97;;
30948;SDS011;17637;51.984;21.208;2024-03-06T01:03:01;182.25;;;76.35;;
30948;SDS011;17637;51.984;21.208;2024-03-06T01:05:34;207.38;;;81.95;;
30948;SDS011;17637;51.984;21.208;2024-03-06T01:08:06;249.23;;;84.03;;
30948;SDS011;17637;51.984;21.208;2024-03-06T01:10:38;157.13;;;71.28;;
30948;SDS011;17637;51.984;21.208;2024-03-06T01:13:10;198.82;;;81.85;;
30948;SDS011;17637;51.984;21.208;2024-03-06T01:15:42;177.32;;;74.70;;
30948;SDS011;17637;51.984;21.208;2024-03-06T01:18:14;133.98;;;65.90;;
30948;SDS011;17637;51.984;21.208;2024-03-06T01:20:46;166.60;;;72.72;;
30948;SDS011;17637;51.984;21.208;2024-03-06T01:23:18;151.85;;;71.03;;
30948;SDS011;17637;51.984;21.208;2024-03-06T01:25:50;124.10;;;62.97;;
30948;SDS011;17637;51.984;21.208;2024-03-06T01:28:22;184.35;;;77.93;;
30948;SDS011;17637;51.984;21.208;2024-03-06T01:30:54;182.80;;;78.93;;
30948;SDS011;17637;51.984;21.208;2024-03-06T01:33:26;166.23;;;75.22;;
30948;SDS011;17637;51.984;21.208;2024-03-06T01:35:58;153.00;;;73.32;;
30948;SDS011;17637;51.984;21.208;2024-03-06T01:38:30;184.30;;;76.70;;
30948;SDS011;17637;51.984;21.208;2024-03-06T01:41:02;150.27;;;70.85;;
30948;SDS011;17637;51.984;21.208;2024-03-06T01:43:37;182.43;;;80.80;;
30948;SDS011;17637;51.984;21.208;2024-03-06T01:46:12;182.27;;;82.70;;
30948;SDS011;17637;51.984;21.208;2024-03-06T01:48:44;143.88;;;72.60;;
30948;SDS011;17637;51.984;21.208;2024-03-06T01:51:17;124.57;;;65.65;;
30948;SDS011;17637;51.984;21.208;2024-03-06T01:53:49;169.98;;;77.97;;
30948;SDS011;17637;51.984;21.208;2024-03-06T01:56:21;158.05;;;74.60;;
30948;SDS011;17637;51.984;21.208;2024-03-06T01:58:53;171.60;;;74.70;;
30948;SDS011;17637;51.984;21.208;2024-03-06T02:01:28;189.30;;;78.72;;
30948;SDS011;17637;51.984;21.208;2024-03-06T02:04:00;133.75;;;69.28;;
30948;SDS011;17637;51.984;21.208;2024-03-06T02:06:32;132.75;;;67.53;;
30948;SDS011;17637;51.984;21.208;2024-03-06T02:09:05;156.13;;;72.10;;
30948;SDS011;17637;51.984;21.208;2024-03-06T02:11:38;146.25;;;72.32;;
30948;SDS011;17637;51.984;21.208;2024-03-06T02:14:10;132.75;;;67.65;;
30948;SDS011;17637;51.984;21.208;2024-03-06T02:16:42;128.77;;;66.45;;
30948;SDS011;17637;51.984;21.208;2024-03-06T02:19:14;119.95;;;69.32;;
30948;SDS011;17637;51.984;21.208;2024-03-06T02:21:47;103.80;;;58.90;;
30948;SDS011;17637;51.984;21.208;2024-03-06T02:24:19;106.47;;;61.60;;
30948;SDS011;17637;51.984;21.208;2024-03-06T02:26:51;112.22;;;63.95;;
30948;SDS011;17637;51.984;21.208;2024-03-06T02:29:23;103.47;;;59.65;;
30948;SDS011;17637;51.984;21.208;2024-03-06T02:31:55;75.50;;;48.88;;
30948;SDS011;17637;51.984;21.208;2024-03-06T02:34:28;74.22;;;47.35;;
30948;SDS011;17637;51.984;21.208;2024-03-06T02:37:01;76.90;;;50.55;;
30948;SDS011;17637;51.984;21.208;2024-03-06T02:39:33;73.60;;;48.33;;
30948;SDS011;17637;51.984;21.208;2024-03-06T02:42:05;70.32;;;45.10;;
30948;SDS011;17637;51.984;21.208;2024-03-06T02:44:38;61.92;;;43.10;;
30948;SDS011;17637;51.984;21.208;2024-03-06T02:47:10;67.50;;;43.58;;
30948;SDS011;17637;51.984;21.208;2024-03-06T02:49:42;73.93;;;48.92;;
30948;SDS011;17637;51.984;21.208;2024-03-06T02:52:14;68.63;;;44.88;;
30948;SDS011;17637;51.984;21.208;2024-03-06T02:54:46;58.63;;;39.83;;
30948;SDS011;17637;51.984;21.208;2024-03-06T02:57:18;65.65;;;42.85;;
30948;SDS011;17637;51.984;21.208;2024-03-06T02:59:50;51.97;;;36.33;;
30948;SDS011;17637;51.984;21.208;2024-03-06T03:02:22;54.45;;;37.60;;
30948;SDS011;17637;51.984;21.208;2024-03-06T03:04:55;50.72;;;37.13;;
30948;SDS011;17637;51.984;21.208;2024-03-06T03:07:27;57.55;;;35.60;;
30948;SDS011;17637;51.984;21.208;2024-03-06T03:09:59;58.40;;;36.83;;
30948;SDS011;17637;51.984;21.208;2024-03-06T03:12:31;54.15;;;34.85;;
30948;SDS011;17637;51.984;21.208;2024-03-06T03:15:03;54.08;;;36.45;;
30948;SDS011;17637;51.984;21.208;2024-03-06T03:17:35;54.78;;;35.70;;
30948;SDS011;17637;51.984;21.208;2024-03-06T03:20:07;56.65;;;37.95;;
30948;SDS011;17637;51.984;21.208;2024-03-06T03:22:42;56.00;;;33.40;;
30948;SDS011;17637;51.984;21.208;2024-03-06T03:25:15;51.75;;;35.53;;
30948;SDS011;17637;51.984;21.208;2024-03-06T03:27:47;49.42;;;35.85;;
30948;SDS011;17637;51.984;21.208;2024-03-06T03:30:19;45.75;;;31.13;;
30948;SDS011;17637;51.984;21.208;2024-03-06T03:32:53;45.45;;;31.08;;
30948;SDS011;17637;51.984;21.208;2024-03-06T03:35:26;47.42;;;32.28;;
30948;SDS011;17637;51.984;21.208;2024-03-06T03:37:58;40.03;;;30.70;;
30948;SDS011;17637;51.984;21.208;2024-03-06T03:40:30;47.45;;;33.80;;
30948;SDS011;17637;51.984;21.208;2024-03-06T03:43:03;53.88;;;34.25;;
30948;SDS011;17637;51.984;21.208;2024-03-06T03:45:38;56.42;;;37.47;;
30948;SDS011;17637;51.984;21.208;2024-03-06T03:48:10;54.60;;;37.50;;
30948;SDS011;17637;51.984;21.208;2024-03-06T03:50:42;42.90;;;31.45;;
30948;SDS011;17637;51.984;21.208;2024-03-06T03:53:14;54.53;;;37.63;;
30948;SDS011;17637;51.984;21.208;2024-03-06T03:55:47;51.47;;;35.40;;
30948;SDS011;17637;51.984;21.208;2024-03-06T03:58:19;54.78;;;36.38;;
30948;SDS011;17637;51.984;21.208;2024-03-06T04:00:51;48.97;;;34.28;;
30948;SDS011;17637;51.984;21.208;2024-03-06T04:03:24;50.25;;;36.08;;
30948;SDS011;17637;51.984;21.208;2024-03-06T04:05:56;54.38;;;35.88;;
30948;SDS011;17637;51.984;21.208;2024-03-06T04:08:28;47.15;;;34.33;;
30948;SDS011;17637;51.984;21.208;2024-03-06T04:11:00;50.58;;;33.13;;
30948;SDS011;17637;51.984;21.208;2024-03-06T04:13:34;50.67;;;34.53;;
30948;SDS011;17637;51.984;21.208;2024-03-06T04:16:08;48.30;;;34.60;;
30948;SDS011;17637;51.984;21.208;2024-03-06T04:18:40;53.75;;;37.17;;
30948;SDS011;17637;51.984;21.208;2024-03-06T04:21:11;52.90;;;35.50;;
30948;SDS011;17637;51.984;21.208;2024-03-06T04:23:46;50.28;;;36.17;;
30948;SDS011;17637;51.984;21.208;2024-03-06T04:26:17;55.28;;;37.42;;
30948;SDS011;17637;51.984;21.208;2024-03-06T04:28:50;50.47;;;35.72;;
30948;SDS011;17637;51.984;21.208;2024-03-06T04:31:22;51.92;;;35.22;;
30948;SDS011;17637;51.984;21.208;2024-03-06T04:33:54;57.45;;;37.28;;
30948;SDS011;17637;51.984;21.208;2024-03-06T04:36:26;55.25;;;36.97;;
30948;SDS011;17637;51.984;21.208;2024-03-06T04:38:58;49.80;;;33.58;;
30948;SDS011;17637;51.984;21.208;2024-03-06T04:41:30;45.13;;;32.00;;
30948;SDS011;17637;51.984;21.208;2024-03-06T04:44:02;46.65;;;31.63;;
30948;SDS011;17637;51.984;21.208;2024-03-06T04:46:34;49.90;;;33.40;;
30948;SDS011;17637;51.984;21.208;2024-03-06T04:49:06;45.30;;;32.10;;
30948;SDS011;17637;51.984;21.208;2024-03-06T04:51:39;45.55;;;33.03;;
30948;SDS011;17637;51.984;21.208;2024-03-06T04:54:10;45.10;;;30.92;;
30948;SDS011;17637;51.984;21.208;2024-03-06T04:56:42;46.40;;;34.78;;
30948;SDS011;17637;51.984;21.208;2024-03-06T04:59:14;53.33;;;36.25;;
30948;SDS011;17637;51.984;21.208;2024-03-06T05:01:47;51.42;;;33.25;;
30948;SDS011;17637;51.984;21.208;2024-03-06T05:04:19;48.35;;;35.00;;
30948;SDS011;17637;51.984;21.208;2024-03-06T05:07:05;48.40;;;33.70;;
30948;SDS011;17637;51.984;21.208;2024-03-06T05:09:50;51.90;;;36.10;;
30948;SDS011;17637;51.984;21.208;2024-03-06T05:12:36;51.08;;;36.60;;
30948;SDS011;17637;51.984;21.208;2024-03-06T05:15:22;52.92;;;36.22;;
30948;SDS011;17637;51.984;21.208;2024-03-06T05:18:08;48.63;;;34.58;;
30948;SDS011;17637;51.984;21.208;2024-03-06T05:20:54;49.05;;;33.88;;
30948;SDS011;17637;51.984;21.208;2024-03-06T05:23:40;50.53;;;36.13;;
30948;SDS011;17637;51.984;21.208;2024-03-06T05:26:25;48.45;;;34.25;;
30948;SDS011;17637;51.984;21.208;2024-03-06T05:29:11;48.22;;;34.45;;
30948;SDS011;17637;51.984;21.208;2024-03-06T05:31:57;46.47;;;33.25;;
30948;SDS011;17637;51.984;21.208;2024-03-06T05:34:42;45.90;;;33.47;;
30948;SDS011;17637;51.984;21.208;2024-03-06T05:37:29;48.60;;;32.97;;
30948;SDS011;17637;51.984;21.208;2024-03-06T05:40:15;53.58;;;35.85;;
30948;SDS011;17637;51.984;21.208;2024-03-06T05:43:00;51.70;;;36.78;;
30948;SDS011;17637;51.984;21.208;2024-03-06T05:45:46;51.30;;;35.17;;
30948;SDS011;17637;51.984;21.208;2024-03-06T05:48:32;54.25;;;37.10;;
30948;SDS011;17637;51.984;21.208;2024-03-06T05:51:18;50.15;;;35.17;;
30948;SDS011;17637;51.984;21.208;2024-03-06T05:54:04;49.05;;;34.95;;
30948;SDS011;17637;51.984;21.208;2024-03-06T05:56:51;52.10;;;35.60;;
30948;SDS011;17637;51.984;21.208;2024-03-06T05:59:37;54.03;;;35.13;;
30948;SDS011;17637;51.984;21.208;2024-03-06T06:02:11;48.88;;;34.10;;
30948;SDS011;17637;51.984;21.208;2024-03-06T06:04:43;51.65;;;35.75;;
30948;SDS011;17637;51.984;21.208;2024-03-06T06:07:30;50.30;;;35.30;;
30948;SDS011;17637;51.984;21.208;2024-03-06T06:10:02;52.70;;;35.90;;
30948;SDS011;17637;51.984;21.208;2024-03-06T06:12:34;50.72;;;35.70;;
30948;SDS011;17637;51.984;21.208;2024-03-06T06:15:06;45.55;;;32.72;;
30948;SDS011;17637;51.984;21.208;2024-03-06T06:17:39;48.63;;;34.63;;
30948;SDS011;17637;51.984;21.208;2024-03-06T06:20:11;56.28;;;35.20;;
30948;SDS011;17637;51.984;21.208;2024-03-06T06:22:47;45.70;;;32.78;;
30948;SDS011;17637;51.984;21.208;2024-03-06T06:25:19;43.95;;;31.67;;
30948;SDS011;17637;51.984;21.208;2024-03-06T06:27:51;46.25;;;34.15;;
30948;SDS011;17637;51.984;21.208;2024-03-06T06:30:23;49.67;;;31.17;;
30948;SDS011;17637;51.984;21.208;2024-03-06T06:32:56;47.55;;;32.00;;
30948;SDS011;17637;51.984;21.208;2024-03-06T06:35:28;50.33;;;33.25;;
30948;SDS011;17637;51.984;21.208;2024-03-06T06:38:00;47.33;;;30.83;;
30948;SDS011;17637;51.984;21.208;2024-03-06T06:40:32;44.92;;;31.40;;
30948;SDS011;17637;51.984;21.208;2024-03-06T06:43:04;44.28;;;32.33;;
30948;SDS011;17637;51.984;21.208;2024-03-06T06:45:36;47.53;;;32.42;;
30948;SDS011;17637;51.984;21.208;2024-03-06T06:48:09;46.67;;;32.67;;
30948;SDS011;17637;51.984;21.208;2024-03-06T06:50:41;43.83;;;30.77;;
30948;SDS011;17637;51.984;21.208;2024-03-06T06:53:13;42.30;;;31.02;;
30948;SDS011;17637;51.984;21.208;2024-03-06T06:55:45;51.42;;;34.38;;
30948;SDS011;17637;51.984;21.208;2024-03-06T06:58:17;43.50;;;31.70;;
30948;SDS011;17637;51.984;21.208;2024-03-06T07:00:49;51.45;;;35.08;;
30948;SDS011;17637;51.984;21.208;2024-03-06T07:03:22;45.38;;;31.63;;
30948;SDS011;17637;51.984;21.208;2024-03-06T07:06:00;43.70;;;31.23;;
30948;SDS011;17637;51.984;21.208;2024-03-06T07:08:34;42.42;;;30.65;;
30948;SDS011;17637;51.984;21.208;2024-03-06T07:11:06;42.88;;;31.67;;
30948;SDS011;17637;51.984;21.208;2024-03-06T07:13:38;46.28;;;31.75;;
30948;SDS011;17637;51.984;21.208;2024-03-06T07:16:10;42.25;;;32.75;;
30948;SDS011;17637;51.984;21.208;2024-03-06T07:18:42;46.53;;;30.20;;
30948;SDS011;17637;51.984;21.208;2024-03-06T07:21:14;45.38;;;32.83;;
30948;SDS011;17637;51.984;21.208;2024-03-06T07:23:46;41.13;;;29.55;;
30948;SDS011;17637;51.984;21.208;2024-03-06T07:26:18;38.10;;;29.65;;
30948;SDS011;17637;51.984;21.208;2024-03-06T07:28:51;41.60;;;28.13;;
30948;SDS011;17637;51.984;21.208;2024-03-06T07:31:24;41.17;;;29.95;;
30948;SDS011;17637;51.984;21.208;2024-03-06T07:33:56;40.45;;;29.85;;
30948;SDS011;17637;51.984;21.208;2024-03-06T07:36:27;44.17;;;31.90;;
30948;SDS011;17637;51.984;21.208;2024-03-06T07:38:59;38.97;;;28.63;;
30948;SDS011;17637;51.984;21.208;2024-03-06T07:41:31;38.88;;;29.38;;
30948;SDS011;17637;51.984;21.208;2024-03-06T07:44:07;60.85;;;35.90;;
30948;SDS011;17637;51.984;21.208;2024-03-06T07:46:40;58.67;;;35.58;;
30948;SDS011;17637;51.984;21.208;2024-03-06T07:49:12;38.50;;;27.70;;
30948;SDS011;17637;51.984;21.208;2024-03-06T07:51:44;41.65;;;29.77;;
30948;SDS011;17637;51.984;21.208;2024-03-06T07:54:16;43.42;;;28.48;;
30948;SDS011;17637;51.984;21.208;2024-03-06T07:56:48;38.65;;;28.58;;
30948;SDS011;17637;51.984;21.208;2024-03-06T07:59:19;39.33;;;28.38;;
30948;SDS011;17637;51.984;21.208;2024-03-06T08:01:51;39.03;;;26.98;;
30948;SDS011;17637;51.984;21.208;2024-03-06T08:04:24;45.25;;;29.80;;
30948;SDS011;17637;51.984;21.208;2024-03-06T08:06:55;39.67;;;28.55;;
30948;SDS011;17637;51.984;21.208;2024-03-06T08:09:27;42.10;;;29.38;;
30948;SDS011;17637;51.984;21.208;2024-03-06T08:12:01;41.22;;;27.42;;
30948;SDS011;17637;51.984;21.208;2024-03-06T08:14:33;38.47;;;27.65;;
30948;SDS011;17637;51.984;21.208;2024-03-06T08:17:05;40.72;;;27.70;;
30948;SDS011;17637;51.984;21.208;2024-03-06T08:19:37;44.45;;;28.20;;
30948;SDS011;17637;51.984;21.208;2024-03-06T08:22:09;40.15;;;27.45;;
30948;SDS011;17637;51.984;21.208;2024-03-06T08:24:41;42.95;;;27.83;;
30948;SDS011;17637;51.984;21.208;2024-03-06T08:27:13;39.92;;;28.40;;
30948;SDS011;17637;51.984;21.208;2024-03-06T08:29:45;41.95;;;29.85;;
30948;SDS011;17637;51.984;21.208;2024-03-06T08:32:17;44.10;;;28.52;;
30948;SDS011;17637;51.984;21.208;2024-03-06T08:34:49;41.85;;;28.58;;
30948;SDS011;17637;51.984;21.208;2024-03-06T08:37:21;41.47;;;28.98;;
30948;SDS011;17637;51.984;21.208;2024-03-06T08:39:53;43.40;;;29.38;;
30948;SDS011;17637;51.984;21.208;2024-03-06T08:42:25;38.70;;;27.75;;
30948;SDS011;17637;51.984;21.208;2024-03-06T08:44:57;39.78;;;28.17;;
30948;SDS011;17637;51.984;21.208;2024-03-06T08:47:29;41.08;;;28.65;;
30948;SDS011;17637;51.984;21.208;2024-03-06T08:50:01;43.28;;;29.48;;
30948;SDS011;17637;51.984;21.208;2024-03-06T08:52:34;36.08;;;25.60;;
30948;SDS011;17637;51.984;21.208;2024-03-06T08:55:06;52.83;;;32.70;;
30948;SDS011;17637;51.984;21.208;2024-03-06T08:57:39;41.08;;;28.00;;
30948;SDS011;17637;51.984;21.208;2024-03-06T09:00:11;34.47;;;25.17;;
30948;SDS011;17637;51.984;21.208;2024-03-06T09:02:43;34.38;;;25.27;;
30948;SDS011;17637;51.984;21.208;2024-03-06T09:05:15;32.28;;;24.33;;
30948;SDS011;17637;51.984;21.208;2024-03-06T09:07:48;31.52;;;22.58;;
30948;SDS011;17637;51.984;21.208;2024-03-06T09:10:20;33.45;;;23.80;;
30948;SDS011;17637;51.984;21.208;2024-03-06T09:12:52;29.70;;;22.20;;
30948;SDS011;17637;51.984;21.208;2024-03-06T09:15:24;38.75;;;24.30;;
30948;SDS011;17637;51.984;21.208;2024-03-06T09:17:57;33.80;;;23.17;;
30948;SDS011;17637;51.984;21.208;2024-03-06T09:20:29;30.95;;;21.75;;
30948;SDS011;17637;51.984;21.208;2024-03-06T09:23:01;35.67;;;22.50;;
30948;SDS011;17637;51.984;21.208;2024-03-06T09:25:34;30.73;;;23.17;;
30948;SDS011;17637;51.984;21.208;2024-03-06T09:28:06;32.70;;;24.10;;
30948;SDS011;17637;51.984;21.208;2024-03-06T09:30:40;33.60;;;22.55;;
30948;SDS011;17637;51.984;21.208;2024-03-06T09:33:13;36.88;;;24.35;;
30948;SDS011;17637;51.984;21.208;2024-03-06T09:35:45;33.65;;;23.88;;
30948;SDS011;17637;51.984;21.208;2024-03-06T09:38:18;33.45;;;22.52;;
30948;SDS011;17637;51.984;21.208;2024-03-06T09:40:50;35.17;;;22.90;;
30948;SDS011;17637;51.984;21.208;2024-03-06T09:43:23;32.97;;;22.38;;
30948;SDS011;17637;51.984;21.208;2024-03-06T09:45:58;31.85;;;21.90;;
30948;SDS011;17637;51.984;21.208;2024-03-06T09:48:30;31.83;;;21.77;;
30948;SDS011;17637;51.984;21.208;2024-03-06T09:51:02;30.65;;;21.98;;
30948;SDS011;17637;51.984;21.208;2024-03-06T09:53:35;33.60;;;21.38;;
30948;SDS011;17637;51.984;21.208;2024-03-06T09:56:09;33.85;;;22.63;;
30948;SDS011;17637;51.984;21.208;2024-03-06T09:58:41;34.75;;;22.25;;
30948;SDS011;17637;51.984;21.208;2024-03-06T10:01:14;32.63;;;21.48;;
30948;SDS011;17637;51.984;21.208;2024-03-06T10:03:46;39.72;;;24.80;;
30948;SDS011;17637;51.984;21.208;2024-03-06T10:06:18;38.55;;;25.15;;
30948;SDS011;17637;51.984;21.208;2024-03-06T10:08:50;41.13;;;25.25;;
30948;SDS011;17637;51.984;21.208;2024-03-06T10:11:22;45.38;;;28.05;;
30948;SDS011;17637;51.984;21.208;2024-03-06T10:13:54;33.22;;;22.73;;
30948;SDS011;17637;51.984;21.208;2024-03-06T10:16:26;33.25;;;22.33;;
30948;SDS011;17637;51.984;21.208;2024-03-06T10:18:59;32.72;;;22.50;;
30948;SDS011;17637;51.984;21.208;2024-03-06T10:21:48;36.67;;;24.87;;
30948;SDS011;17637;51.984;21.208;2024-03-06T10:24:23;36.78;;;25.88;;
30948;SDS011;17637;51.984;21.208;2024-03-06T10:26:56;38.00;;;25.00;;
30948;SDS011;17637;51.984;21.208;2024-03-06T10:29:30;38.83;;;25.60;;
30948;SDS011;17637;51.984;21.208;2024-03-06T10:32:02;38.45;;;25.30;;
30948;SDS011;17637;51.984;21.208;2024-03-06T10:34:34;39.05;;;25.70;;
30948;SDS011;17637;51.984;21.208;2024-03-06T10:37:06;39.35;;;25.70;;
30948;SDS011;17637;51.984;21.208;2024-03-06T10:39:39;42.70;;;26.63;;
30948;SDS011;17637;51.984;21.208;2024-03-06T10:42:15;40.55;;;27.20;;
30948;SDS011;17637;51.984;21.208;2024-03-06T10:44:50;38.03;;;24.48;;
30948;SDS011;17637;51.984;21.208;2024-03-06T10:47:24;38.75;;;25.85;;
30948;SDS011;17637;51.984;21.208;2024-03-06T10:49:59;41.25;;;25.17;;
30948;SDS011;17637;51.984;21.208;2024-03-06T10:52:36;41.13;;;24.92;;
30948;SDS011;17637;51.984;21.208;2024-03-06T10:55:09;44.65;;;26.92;;
30948;SDS011;17637;51.984;21.208;2024-03-06T10:57:43;40.17;;;25.23;;
30948;SDS011;17637;51.984;21.208;2024-03-06T11:00:15;43.75;;;27.15;;
30948;SDS011;17637;51.984;21.208;2024-03-06T11:02:51;44.97;;;28.58;;
30948;SDS011;17637;51.984;21.208;2024-03-06T11:05:25;43.00;;;25.30;;
30948;SDS011;17637;51.984;21.208;2024-03-06T11:07:58;46.03;;;25.83;;
30948;SDS011;17637;51.984;21.208;2024-03-06T11:10:33;42.38;;;25.30;;
30948;SDS011;17637;51.984;21.208;2024-03-06T11:13:25;40.42;;;25.45;;
30948;SDS011;17637;51.984;21.208;2024-03-06T11:16:00;42.40;;;24.42;;
30948;SDS011;17637;51.984;21.208;2024-03-06T11:27:17;40.42;;;24.27;;
30948;SDS011;17637;51.984;21.208;2024-03-06T11:32:58;57.83;;;34.00;;
30948;SDS011;17637;51.984;21.208;2024-03-06T11:35:31;42.17;;;23.75;;
30948;SDS011;17637;51.984;21.208;2024-03-06T11:38:03;36.33;;;22.20;;
30948;SDS011;17637;51.984;21.208;2024-03-06T11:40:44;31.27;;;19.58;;
30948;SDS011;17637;51.984;21.208;2024-03-06T11:43:22;33.60;;;22.25;;
30948;SDS011;17637;51.984;21.208;2024-03-06T11:46:07;32.75;;;21.08;;
30948;SDS011;17637;51.984;21.208;2024-03-06T11:48:40;32.72;;;21.63;;
30948;SDS011;17637;51.984;21.208;2024-03-06T11:51:12;29.48;;;20.15;;
30948;SDS011;17637;51.984;21.208;2024-03-06T11:53:44;27.67;;;18.08;;
30948;SDS011;17637;51.984;21.208;2024-03-06T11:56:17;29.00;;;17.52;;
30948;SDS011;17637;51.984;21.208;2024-03-06T11:58:52;25.98;;;17.58;;
30948;SDS011;17637;51.984;21.208;2024-03-06T12:01:24;26.08;;;18.05;;
30948;SDS011;17637;51.984;21.208;2024-03-06T12:03:57;27.58;;;17.05;;
30948;SDS011;17637;51.984;21.208;2024-03-06T12:06:33;27.88;;;16.90;;
30948;SDS011;17637;51.984;21.208;2024-03-06T12:09:05;25.25;;;16.67;;
30948;SDS011;17637;51.984;21.208;2024-03-06T12:11:40;28.35;;;18.90;;
30948;SDS011;17637;51.984;21.208;2024-03-06T12:14:18;32.55;;;20.75;;
30948;SDS011;17637;51.984;21.208;2024-03-06T12:17:00;28.13;;;17.20;;
30948;SDS011;17637;51.984;21.208;2024-03-06T12:19:36;25.67;;;16.13;;
30948;SDS011;17637;51.984;21.208;2024-03-06T12:22:08;24.83;;;15.80;;
30948;SDS011;17637;51.984;21.208;2024-03-06T12:24:42;24.77;;;16.58;;
30948;SDS011;17637;51.984;21.208;2024-03-06T12:27:14;23.35;;;16.55;;
30948;SDS011;17637;51.984;21.208;2024-03-06T12:29:53;27.20;;;17.08;;
30948;SDS011;17637;51.984;21.208;2024-03-06T12:32:26;27.05;;;16.48;;
30948;SDS011;17637;51.984;21.208;2024-03-06T12:35:01;24.08;;;17.13;;
30948;SDS011;17637;51.984;21.208;2024-03-06T12:37:34;23.50;;;16.20;;
30948;SDS011;17637;51.984;21.208;2024-03-06T12:40:07;24.30;;;16.38;;
30948;SDS011;17637;51.984;21.208;2024-03-06T12:42:45;26.23;;;17.65;;
30948;SDS011;17637;51.984;21.208;2024-03-06T12:45:20;27.25;;;17.25;;
30948;SDS011;17637;51.984;21.208;2024-03-06T12:47:52;25.45;;;16.95;;
30948;SDS011;17637;51.984;21.208;2024-03-06T12:50:26;27.35;;;17.65;;
30948;SDS011;17637;51.984;21.208;2024-03-06T12:52:58;32.40;;;19.77;;
30948;SDS011;17637;51.984;21.208;2024-03-06T12:55:31;32.50;;;18.10;;
30948;SDS011;17637;51.984;21.208;2024-03-06T12:58:03;28.35;;;18.05;;
30948;SDS011;17637;51.984;21.208;2024-03-06T13:00:35;32.17;;;18.60;;
30948;SDS011;17637;51.984;21.208;2024-03-06T13:03:07;30.90;;;19.13;;
30948;SDS011;17637;51.984;21.208;2024-03-06T13:05:39;27.17;;;18.70;;
30948;SDS011;17637;51.984;21.208;2024-03-06T13:08:12;33.47;;;18.80;;
30948;SDS011;17637;51.984;21.208;2024-03-06T13:10:46;28.92;;;18.73;;
30948;SDS011;17637;51.984;21.208;2024-03-06T13:13:18;31.50;;;20.55;;
30948;SDS011;17637;51.984;21.208;2024-03-06T13:15:53;30.90;;;19.63;;
30948;SDS011;17637;51.984;21.208;2024-03-06T13:18:25;40.58;;;21.55;;
30948;SDS011;17637;51.984;21.208;2024-03-06T13:20:59;33.30;;;22.58;;
30948;SDS011;17637;51.984;21.208;2024-03-06T13:23:33;32.95;;;21.73;;
30948;SDS011;17637;51.984;21.208;2024-03-06T13:26:06;35.25;;;23.08;;
30948;SDS011;17637;51.984;21.208;2024-03-06T13:28:38;36.90;;;24.75;;
30948;SDS011;17637;51.984;21.208;2024-03-06T13:31:10;39.13;;;22.63;;
30948;SDS011;17637;51.984;21.208;2024-03-06T13:33:42;39.85;;;23.55;;
30948;SDS011;17637;51.984;21.208;2024-03-06T13:36:14;32.92;;;20.98;;
30948;SDS011;17637;51.984;21.208;2024-03-06T13:38:46;36.35;;;22.63;;
30948;SDS011;17637;51.984;21.208;2024-03-06T13:41:18;30.77;;;20.75;;
30948;SDS011;17637;51.984;21.208;2024-03-06T13:43:50;34.50;;;20.60;;
30948;SDS011;17637;51.984;21.208;2024-03-06T13:46:22;39.67;;;21.25;;
30948;SDS011;17637;51.984;21.208;2024-03-06T13:48:54;29.48;;;20.00;;
30948;SDS011;17637;51.984;21.208;2024-03-06T13:51:26;29.48;;;19.27;;
30948;SDS011;17637;51.984;21.208;2024-03-06T13:53:58;36.45;;;21.08;;
30948;SDS011;17637;51.984;21.208;2024-03-06T13:56:30;31.52;;;20.20;;
30948;SDS011;17637;51.984;21.208;2024-03-06T13:59:02;31.40;;;19.48;;
30948;SDS011;17637;51.984;21.208;2024-03-06T14:01:34;30.33;;;18.60;;
30948;SDS011;17637;51.984;21.208;2024-03-06T14:04:06;29.27;;;19.10;;
30948;SDS011;17637;51.984;21.208;2024-03-06T14:06:37;28.60;;;17.45;;
30948;SDS011;17637;51.984;21.208;2024-03-06T14:09:09;30.27;;;18.90;;
30948;SDS011;17637;51.984;21.208;2024-03-06T14:11:41;33.03;;;20.35;;
30948;SDS011;17637;51.984;21.208;2024-03-06T14:14:17;29.15;;;17.63;;
30948;SDS011;17637;51.984;21.208;2024-03-06T14:16:49;29.90;;;19.00;;
30948;SDS011;17637;51.984;21.208;2024-03-06T14:19:21;32.45;;;20.33;;
30948;SDS011;17637;51.984;21.208;2024-03-06T14:21:53;50.90;;;29.77;;
30948;SDS011;17637;51.984;21.208;2024-03-06T14:24:25;82.45;;;45.22;;
30948;SDS011;17637;51.984;21.208;2024-03-06T14:26:57;61.95;;;36.70;;
30948;SDS011;17637;51.984;21.208;2024-03-06T14:29:29;61.90;;;38.95;;
30948;SDS011;17637;51.984;21.208;2024-03-06T14:32:01;33.55;;;19.50;;
30948;SDS011;17637;51.984;21.208;2024-03-06T14:34:34;34.22;;;23.80;;
30948;SDS011;17637;51.984;21.208;2024-03-06T14:37:06;32.35;;;21.60;;
30948;SDS011;17637;51.984;21.208;2024-03-06T14:39:38;31.80;;;21.50;;
30948;SDS011;17637;51.984;21.208;2024-03-06T14:42:11;31.17;;;19.17;;
30948;SDS011;17637;51.984;21.208;2024-03-06T14:44:43;30.85;;;19.00;;
30948;SDS011;17637;51.984;21.208;2024-03-06T14:47:15;29.85;;;17.20;;
30948;SDS011;17637;51.984;21.208;2024-03-06T14:49:47;31.05;;;17.13;;
30948;SDS011;17637;51.984;21.208;2024-03-06T14:52:19;31.77;;;18.35;;
30948;SDS011;17637;51.984;21.208;2024-03-06T14:54:51;26.00;;;15.48;;